Date,TemperatureHighF,TemperatureAvgF,TemperatureLowF,DewpointHighF,DewpointAvgF,DewpointLowF,HumidityHigh,HumidityAvg,HumidityLow,PressureMaxIn,PressureMinIn,WindSpeedMaxMPH,WindSpeedAvgMPH,GustSpeedMaxMPH,PrecipitationSumIn
2013-9-1,79,71,66,70,68,65,97,89,73,29.80,29.72,8,2,8,0.00
2013-9-2,80,70,62,70,67,61,99,91,67,29.77,29.61,26,2,26,0.64
2013-9-3,69,63,58,62,59,55,99,87,69,29.77,29.64,20,5,20,0.01
2013-9-4,72,64,58,59,55,51,91,75,59,29.85,29.77,20,8,20,0.00
2013-9-5,64,55,42,57,48,40,96,77,50,30.12,29.79,17,4,17,0.20
2013-9-6,62,50,36,47,41,35,97,74,43,30.23,30.06,13,3,13,0.00
2013-9-7,69,57,46,53,47,43,94,72,40,30.06,29.81,18,5,18,0.01
2013-9-8,60,55,42,56,47,39,93,75,59,30.06,29.73,22,7,22,0.01
2013-9-9,66,51,37,50,42,35,98,77,42,30.18,30.05,10,2,10,0.00
2013-9-10,73,61,48,69,59,47,98,93,83,30.07,29.95,17,2,17,0.21
2013-9-11,87,79,64,74,71,64,99,79,59,30.00,29.85,21,7,21,0.00
2013-9-12,79,67,63,70,65,62,97,92,68,29.82,29.57,44,1,44,0.60
2013-9-13,63,56,49,62,55,48,98,97,96,29.79,29.53,17,6,17,0.46
2013-9-14,49,48,48,48,48,47,97,97,97,29.81,29.78,15,7,15,0.00
2013-9-15,59,56,55,51,50,48,84,80,74,30.03,29.99,14,3,14,0.01
2013-9-16,56,48,36,51,44,33,95,86,68,30.26,29.97,18,5,18,0.10
2013-9-17,59,45,33,46,39,32,97,81,55,30.43,30.26,10,2,10,0.00
2013-9-18,68,50,37,51,42,36,99,78,42,30.32,30.12,12,2,12,0.01
2013-9-19,73,56,43,56,48,42,99,80,42,30.13,30.01,12,1,12,0.00
2013-9-20,79,60,46,59,52,45,99,78,41,30.06,29.91,8,1,8,0.01
2013-9-21,73,60,49,61,54,48,98,83,45,29.92,29.57,18,4,18,0.11
2013-9-22,62,54,45,60,50,41,95,87,71,29.83,29.51,20,7,20,0.52
2013-9-23,52,44,39,43,39,36,91,82,67,30.01,29.83,17,7,17,0.00
2013-9-24,58,48,42,45,41,37,87,76,59,30.00,29.86,18,7,18,0.00
2013-9-25,63,50,38,51,45,37,97,83,63,29.96,29.88,17,4,17,0.00
2013-9-26,62,50,39,50,45,37,97,84,60,30.13,29.96,13,2,13,0.00
2013-9-27,57,48,41,51,46,40,98,91,76,30.28,30.12,6,0,6,0.00
2013-9-28,73,55,42,58,48,41,99,82,47,30.33,30.22,1,0,0,0.01
2013-9-29,72,55,44,56,48,43,99,82,50,30.22,30.03,0,0,0,0.01
2013-9-30,72,54,42,54,48,41,99,81,48,30.06,29.93,8,1,8,0.00